sensor_id;sensor_type;location;lat;lon;timestamp;temperature;humidity
81192;DHT22;70665;47.652;-2.730;2023-08-12T00:00:05;20.00;88.30
81192;DHT22;70665;47.652;-2.730;2023-08-12T00:02:40;20.00;88.70
81192;DHT22;70665;47.652;-2.730;2023-08-12T00:05:07;19.90;88.40
81192;DHT22;70665;47.652;-2.730;2023-08-12T00:07:34;20.00;88.40
81192;DHT22;70665;47.652;-2.730;2023-08-12T00:10:03;20.00;88.60
81192;DHT22;70665;47.652;-2.730;2023-08-12T00:12:33;20.00;88.80
81192;DHT22;70665;47.652;-2.730;2023-08-12T00:14:59;19.80;88.60
81192;DHT22;70665;47.652;-2.730;2023-08-12T00:17:25;19.90;88.50
81192;DHT22;70665;47.652;-2.730;2023-08-12T00:19:51;19.80;88.30
81192;DHT22;70665;47.652;-2.730;2023-08-12T00:22:17;19.70;88.30
81192;DHT22;70665;47.652;-2.730;2023-08-12T00:24:42;19.70;88.10
81192;DHT22;70665;47.652;-2.730;2023-08-12T00:27:10;19.60;88.10
81192;DHT22;70665;47.652;-2.730;2023-08-12T00:29:36;19.60;88.30
81192;DHT22;70665;47.652;-2.730;2023-08-12T00:32:02;19.50;88.40
81192;DHT22;70665;47.652;-2.730;2023-08-12T00:34:28;19.50;88.40
81192;DHT22;70665;47.652;-2.730;2023-08-12T00:36:53;19.50;88.80
81192;DHT22;70665;47.652;-2.730;2023-08-12T00:39:19;19.50;88.30
81192;DHT22;70665;47.652;-2.730;2023-08-12T00:41:45;19.50;88.40
81192;DHT22;70665;47.652;-2.730;2023-08-12T00:44:12;19.30;88.80
81192;DHT22;70665;47.652;-2.730;2023-08-12T00:46:38;19.30;88.10
81192;DHT22;70665;47.652;-2.730;2023-08-12T00:49:06;19.20;87.90
81192;DHT22;70665;47.652;-2.730;2023-08-12T00:51:31;19.20;88.50
81192;DHT22;70665;47.652;-2.730;2023-08-12T00:54:02;19.20;88.50
81192;DHT22;70665;47.652;-2.730;2023-08-12T00:56:30;19.10;88.60
81192;DHT22;70665;47.652;-2.730;2023-08-12T00:58:57;19.10;88.40
81192;DHT22;70665;47.652;-2.730;2023-08-12T01:01:23;19.10;88.20
81192;DHT22;70665;47.652;-2.730;2023-08-12T01:03:48;18.90;88.50
81192;DHT22;70665;47.652;-2.730;2023-08-12T01:06:14;19.00;88.60
81192;DHT22;70665;47.652;-2.730;2023-08-12T01:08:40;18.90;88.80
81192;DHT22;70665;47.652;-2.730;2023-08-12T01:11:12;18.90;89.60
81192;DHT22;70665;47.652;-2.730;2023-08-12T01:13:54;18.90;88.70
81192;DHT22;70665;47.652;-2.730;2023-08-12T01:16:23;18.80;89.10
81192;DHT22;70665;47.652;-2.730;2023-08-12T01:18:51;18.70;89.00
81192;DHT22;70665;47.652;-2.730;2023-08-12T01:21:21;18.70;89.10
81192;DHT22;70665;47.652;-2.730;2023-08-12T01:23:47;18.70;88.80
81192;DHT22;70665;47.652;-2.730;2023-08-12T01:26:13;18.60;88.90
81192;DHT22;70665;47.652;-2.730;2023-08-12T01:28:39;18.70;89.00
81192;DHT22;70665;47.652;-2.730;2023-08-12T01:34:00;18.50;89.50
81192;DHT22;70665;47.652;-2.730;2023-08-12T01:36:29;18.50;89.30
81192;DHT22;70665;47.652;-2.730;2023-08-12T01:38:58;18.50;89.10
81192;DHT22;70665;47.652;-2.730;2023-08-12T01:41:25;18.50;89.30
81192;DHT22;70665;47.652;-2.730;2023-08-12T01:43:51;18.50;89.20
81192;DHT22;70665;47.652;-2.730;2023-08-12T01:46:17;18.30;89.30
81192;DHT22;70665;47.652;-2.730;2023-08-12T01:48:43;18.60;89.10
81192;DHT22;70665;47.652;-2.730;2023-08-12T01:51:09;18.50;88.90
81192;DHT22;70665;47.652;-2.730;2023-08-12T01:53:34;18.40;89.10
81192;DHT22;70665;47.652;-2.730;2023-08-12T01:56:00;18.30;89.10
81192;DHT22;70665;47.652;-2.730;2023-08-12T01:58:26;18.50;89.20
81192;DHT22;70665;47.652;-2.730;2023-08-12T02:00:52;18.40;88.80
81192;DHT22;70665;47.652;-2.730;2023-08-12T02:03:18;18.50;89.00
81192;DHT22;70665;47.652;-2.730;2023-08-12T02:05:43;18.50;90.60
81192;DHT22;70665;47.652;-2.730;2023-08-12T02:08:09;18.50;89.50
81192;DHT22;70665;47.652;-2.730;2023-08-12T02:10:35;18.50;89.50
81192;DHT22;70665;47.652;-2.730;2023-08-12T02:13:00;18.40;89.40
81192;DHT22;70665;47.652;-2.730;2023-08-12T02:15:26;18.40;89.00
81192;DHT22;70665;47.652;-2.730;2023-08-12T02:17:52;18.40;89.30
81192;DHT22;70665;47.652;-2.730;2023-08-12T02:20:18;18.50;89.20
81192;DHT22;70665;47.652;-2.730;2023-08-12T02:22:44;18.30;88.80
81192;DHT22;70665;47.652;-2.730;2023-08-12T02:25:09;18.30;89.60
81192;DHT22;70665;47.652;-2.730;2023-08-12T02:27:35;18.20;88.60
81192;DHT22;70665;47.652;-2.730;2023-08-12T02:30:00;18.20;88.70
81192;DHT22;70665;47.652;-2.730;2023-08-12T02:32:26;18.30;88.60
81192;DHT22;70665;47.652;-2.730;2023-08-12T02:34:52;18.20;88.10
81192;DHT22;70665;47.652;-2.730;2023-08-12T02:37:17;18.10;88.10
81192;DHT22;70665;47.652;-2.730;2023-08-12T02:39:43;18.10;88.20
81192;DHT22;70665;47.652;-2.730;2023-08-12T02:42:09;18.10;88.40
81192;DHT22;70665;47.652;-2.730;2023-08-12T02:44:34;18.10;88.50
81192;DHT22;70665;47.652;-2.730;2023-08-12T02:47:00;18.20;88.60
81192;DHT22;70665;47.652;-2.730;2023-08-12T02:49:25;18.10;88.20
81192;DHT22;70665;47.652;-2.730;2023-08-12T02:51:51;18.10;89.80
81192;DHT22;70665;47.652;-2.730;2023-08-12T02:54:17;18.10;88.60
81192;DHT22;70665;47.652;-2.730;2023-08-12T02:56:44;18.00;88.70
81192;DHT22;70665;47.652;-2.730;2023-08-12T02:59:09;18.00;89.00
81192;DHT22;70665;47.652;-2.730;2023-08-12T03:01:35;18.00;90.10
81192;DHT22;70665;47.652;-2.730;2023-08-12T03:04:00;18.10;89.00
81192;DHT22;70665;47.652;-2.730;2023-08-12T03:06:26;18.00;88.90
81192;DHT22;70665;47.652;-2.730;2023-08-12T03:08:52;18.00;89.20
81192;DHT22;70665;47.652;-2.730;2023-08-12T03:11:17;18.00;88.70
81192;DHT22;70665;47.652;-2.730;2023-08-12T03:13:44;17.90;88.80
81192;DHT22;70665;47.652;-2.730;2023-08-12T03:16:13;18.00;88.90
81192;DHT22;70665;47.652;-2.730;2023-08-12T03:18:39;18.10;88.60
81192;DHT22;70665;47.652;-2.730;2023-08-12T03:21:07;18.00;88.40
81192;DHT22;70665;47.652;-2.730;2023-08-12T03:23:33;18.00;88.80
81192;DHT22;70665;47.652;-2.730;2023-08-12T03:25:58;18.00;88.50
81192;DHT22;70665;47.652;-2.730;2023-08-12T03:28:24;18.00;89.00
81192;DHT22;70665;47.652;-2.730;2023-08-12T03:30:51;18.00;88.60
81192;DHT22;70665;47.652;-2.730;2023-08-12T03:33:17;17.90;87.90
81192;DHT22;70665;47.652;-2.730;2023-08-12T03:35:44;18.00;88.80
81192;DHT22;70665;47.652;-2.730;2023-08-12T03:38:10;18.00;88.30
81192;DHT22;70665;47.652;-2.730;2023-08-12T03:40:37;18.00;89.20
81192;DHT22;70665;47.652;-2.730;2023-08-12T03:43:03;17.90;88.40
81192;DHT22;70665;47.652;-2.730;2023-08-12T03:45:28;17.90;89.30
81192;DHT22;70665;47.652;-2.730;2023-08-12T03:47:54;17.80;88.20
81192;DHT22;70665;47.652;-2.730;2023-08-12T03:50:20;17.90;88.00
81192;DHT22;70665;47.652;-2.730;2023-08-12T03:52:45;17.70;87.90
81192;DHT22;70665;47.652;-2.730;2023-08-12T03:55:11;17.80;88.00
81192;DHT22;70665;47.652;-2.730;2023-08-12T03:57:37;17.90;87.90
81192;DHT22;70665;47.652;-2.730;2023-08-12T04:00:03;17.80;87.80
81192;DHT22;70665;47.652;-2.730;2023-08-12T04:02:29;17.80;88.00
81192;DHT22;70665;47.652;-2.730;2023-08-12T04:04:55;17.80;87.80
81192;DHT22;70665;47.652;-2.730;2023-08-12T04:07:20;17.80;88.30
81192;DHT22;70665;47.652;-2.730;2023-08-12T04:09:46;17.80;88.40
81192;DHT22;70665;47.652;-2.730;2023-08-12T04:12:12;17.60;88.40
81192;DHT22;70665;47.652;-2.730;2023-08-12T04:14:37;17.60;88.70
81192;DHT22;70665;47.652;-2.730;2023-08-12T04:17:03;17.50;88.40
81192;DHT22;70665;47.652;-2.730;2023-08-12T04:19:29;17.60;88.40
81192;DHT22;70665;47.652;-2.730;2023-08-12T04:21:54;17.60;88.60
81192;DHT22;70665;47.652;-2.730;2023-08-12T04:24:20;17.60;88.60
81192;DHT22;70665;47.652;-2.730;2023-08-12T04:26:45;17.70;88.70
81192;DHT22;70665;47.652;-2.730;2023-08-12T04:29:11;17.60;88.50
81192;DHT22;70665;47.652;-2.730;2023-08-12T04:31:37;17.70;88.50
81192;DHT22;70665;47.652;-2.730;2023-08-12T04:34:02;17.70;88.00
81192;DHT22;70665;47.652;-2.730;2023-08-12T04:36:29;17.50;88.50
81192;DHT22;70665;47.652;-2.730;2023-08-12T04:38:55;17.40;88.40
81192;DHT22;70665;47.652;-2.730;2023-08-12T04:41:21;17.40;90.00
81192;DHT22;70665;47.652;-2.730;2023-08-12T04:43:49;17.40;89.00
81192;DHT22;70665;47.652;-2.730;2023-08-12T04:46:14;17.30;90.00
81192;DHT22;70665;47.652;-2.730;2023-08-12T04:48:40;17.30;89.10
81192;DHT22;70665;47.652;-2.730;2023-08-12T04:51:06;17.30;89.20
81192;DHT22;70665;47.652;-2.730;2023-08-12T04:53:32;17.30;89.50
81192;DHT22;70665;47.652;-2.730;2023-08-12T04:55:58;17.20;90.60
81192;DHT22;70665;47.652;-2.730;2023-08-12T04:58:23;17.20;89.50
81192;DHT22;70665;47.652;-2.730;2023-08-12T05:00:50;17.20;89.40
81192;DHT22;70665;47.652;-2.730;2023-08-12T05:03:17;17.20;89.30
81192;DHT22;70665;47.652;-2.730;2023-08-12T05:05:43;17.20;90.60
81192;DHT22;70665;47.652;-2.730;2023-08-12T05:08:08;17.10;89.50
81192;DHT22;70665;47.652;-2.730;2023-08-12T05:10:34;17.10;90.70
81192;DHT22;70665;47.652;-2.730;2023-08-12T05:12:59;17.10;89.90
81192;DHT22;70665;47.652;-2.730;2023-08-12T05:15:25;17.10;90.90
81192;DHT22;70665;47.652;-2.730;2023-08-12T05:17:52;17.00;90.30
81192;DHT22;70665;47.652;-2.730;2023-08-12T05:20:17;17.00;89.90
81192;DHT22;70665;47.652;-2.730;2023-08-12T05:22:43;17.10;90.80
81192;DHT22;70665;47.652;-2.730;2023-08-12T05:25:08;17.10;89.70
81192;DHT22;70665;47.652;-2.730;2023-08-12T05:27:34;17.10;90.90
81192;DHT22;70665;47.652;-2.730;2023-08-12T05:29:59;17.10;89.70
81192;DHT22;70665;47.652;-2.730;2023-08-12T05:32:25;17.20;89.70
81192;DHT22;70665;47.652;-2.730;2023-08-12T05:34:55;17.20;89.90
81192;DHT22;70665;47.652;-2.730;2023-08-12T05:37:21;17.20;90.00
81192;DHT22;70665;47.652;-2.730;2023-08-12T05:39:46;17.20;91.20
81192;DHT22;70665;47.652;-2.730;2023-08-12T05:42:12;17.30;89.90
81192;DHT22;70665;47.652;-2.730;2023-08-12T05:44:37;17.30;90.80
81192;DHT22;70665;47.652;-2.730;2023-08-12T05:47:03;17.30;89.70
81192;DHT22;70665;47.652;-2.730;2023-08-12T05:49:28;17.40;90.80
81192;DHT22;70665;47.652;-2.730;2023-08-12T05:51:54;17.50;89.50
81192;DHT22;70665;47.652;-2.730;2023-08-12T05:54:20;17.50;89.00
81192;DHT22;70665;47.652;-2.730;2023-08-12T05:56:45;17.50;90.30
81192;DHT22;70665;47.652;-2.730;2023-08-12T05:59:11;17.60;89.10
81192;DHT22;70665;47.652;-2.730;2023-08-12T06:01:36;17.60;90.50
81192;DHT22;70665;47.652;-2.730;2023-08-12T06:04:02;17.70;89.10
81192;DHT22;70665;47.652;-2.730;2023-08-12T06:06:28;17.80;88.50
81192;DHT22;70665;47.652;-2.730;2023-08-12T06:08:53;17.90;88.20
81192;DHT22;70665;47.652;-2.730;2023-08-12T06:11:19;18.00;89.10
81192;DHT22;70665;47.652;-2.730;2023-08-12T06:13:44;18.10;88.20
81192;DHT22;70665;47.652;-2.730;2023-08-12T06:16:10;18.10;88.40
81192;DHT22;70665;47.652;-2.730;2023-08-12T06:18:35;18.20;88.30
81192;DHT22;70665;47.652;-2.730;2023-08-12T06:21:01;18.30;88.00
81192;DHT22;70665;47.652;-2.730;2023-08-12T06:23:27;18.30;87.90
81192;DHT22;70665;47.652;-2.730;2023-08-12T06:25:52;18.50;89.80
81192;DHT22;70665;47.652;-2.730;2023-08-12T06:28:18;18.30;88.10
81192;DHT22;70665;47.652;-2.730;2023-08-12T06:30:47;18.60;88.10
81192;DHT22;70665;47.652;-2.730;2023-08-12T06:33:14;18.50;87.90
81192;DHT22;70665;47.652;-2.730;2023-08-12T06:35:40;18.60;87.50
81192;DHT22;70665;47.652;-2.730;2023-08-12T06:38:05;18.70;88.90
81192;DHT22;70665;47.652;-2.730;2023-08-12T06:40:31;18.80;87.40
81192;DHT22;70665;47.652;-2.730;2023-08-12T06:42:57;18.90;87.00
81192;DHT22;70665;47.652;-2.730;2023-08-12T06:45:22;18.90;86.90
81192;DHT22;70665;47.652;-2.730;2023-08-12T06:47:48;19.10;86.80
81192;DHT22;70665;47.652;-2.730;2023-08-12T06:50:13;19.20;86.80
81192;DHT22;70665;47.652;-2.730;2023-08-12T06:52:39;19.20;86.40
81192;DHT22;70665;47.652;-2.730;2023-08-12T06:55:05;19.20;86.40
81192;DHT22;70665;47.652;-2.730;2023-08-12T06:57:31;19.20;86.20
81192;DHT22;70665;47.652;-2.730;2023-08-12T06:59:56;19.30;85.70
81192;DHT22;70665;47.652;-2.730;2023-08-12T07:02:22;19.30;86.80
81192;DHT22;70665;47.652;-2.730;2023-08-12T07:04:48;19.30;86.50
81192;DHT22;70665;47.652;-2.730;2023-08-12T07:07:14;19.40;86.80
81192;DHT22;70665;47.652;-2.730;2023-08-12T07:09:39;19.50;86.00
81192;DHT22;70665;47.652;-2.730;2023-08-12T07:12:05;19.60;85.10
81192;DHT22;70665;47.652;-2.730;2023-08-12T07:14:31;19.70;84.80
81192;DHT22;70665;47.652;-2.730;2023-08-12T07:16:56;19.70;85.00
81192;DHT22;70665;47.652;-2.730;2023-08-12T07:19:23;19.90;84.20
81192;DHT22;70665;47.652;-2.730;2023-08-12T07:21:48;20.10;83.90
81192;DHT22;70665;47.652;-2.730;2023-08-12T07:24:14;20.20;83.40
81192;DHT22;70665;47.652;-2.730;2023-08-12T07:26:39;20.40;82.20
81192;DHT22;70665;47.652;-2.730;2023-08-12T07:29:05;20.40;82.50
81192;DHT22;70665;47.652;-2.730;2023-08-12T07:31:31;20.40;82.70
81192;DHT22;70665;47.652;-2.730;2023-08-12T07:33:56;20.20;81.90
81192;DHT22;70665;47.652;-2.730;2023-08-12T07:36:22;20.20;82.50
81192;DHT22;70665;47.652;-2.730;2023-08-12T07:38:48;20.40;82.30
81192;DHT22;70665;47.652;-2.730;2023-08-12T07:41:13;20.50;81.40
81192;DHT22;70665;47.652;-2.730;2023-08-12T07:43:39;20.80;80.10
81192;DHT22;70665;47.652;-2.730;2023-08-12T07:46:05;21.00;80.20
81192;DHT22;70665;47.652;-2.730;2023-08-12T07:48:30;21.00;79.80
81192;DHT22;70665;47.652;-2.730;2023-08-12T07:50:57;21.10;79.40
81192;DHT22;70665;47.652;-2.730;2023-08-12T07:53:23;21.10;79.40
81192;DHT22;70665;47.652;-2.730;2023-08-12T07:55:49;21.20;78.90
81192;DHT22;70665;47.652;-2.730;2023-08-12T07:58:15;21.20;80.10
81192;DHT22;70665;47.652;-2.730;2023-08-12T08:00:40;21.40;78.70
81192;DHT22;70665;47.652;-2.730;2023-08-12T08:03:06;21.30;78.50
81192;DHT22;70665;47.652;-2.730;2023-08-12T08:05:32;21.10;78.60
81192;DHT22;70665;47.652;-2.730;2023-08-12T08:07:58;21.10;79.50
81192;DHT22;70665;47.652;-2.730;2023-08-12T08:10:24;21.10;79.80
81192;DHT22;70665;47.652;-2.730;2023-08-12T08:12:49;21.20;79.20
81192;DHT22;70665;47.652;-2.730;2023-08-12T08:15:15;21.40;78.70
81192;DHT22;70665;47.652;-2.730;2023-08-12T08:17:40;21.60;78.60
81192;DHT22;70665;47.652;-2.730;2023-08-12T08:20:06;21.60;77.50
81192;DHT22;70665;47.652;-2.730;2023-08-12T08:22:32;21.50;78.80
81192;DHT22;70665;47.652;-2.730;2023-08-12T08:24:59;21.40;78.00
81192;DHT22;70665;47.652;-2.730;2023-08-12T08:27:24;21.30;78.50
81192;DHT22;70665;47.652;-2.730;2023-08-12T08:29:50;21.40;78.90
81192;DHT22;70665;47.652;-2.730;2023-08-12T08:32:16;21.30;77.40
81192;DHT22;70665;47.652;-2.730;2023-08-12T08:34:42;21.10;77.80
81192;DHT22;70665;47.652;-2.730;2023-08-12T08:37:08;21.10;78.20
81192;DHT22;70665;47.652;-2.730;2023-08-12T08:39:33;21.10;77.60
81192;DHT22;70665;47.652;-2.730;2023-08-12T08:41:59;20.90;77.70
81192;DHT22;70665;47.652;-2.730;2023-08-12T08:44:29;20.90;77.80
81192;DHT22;70665;47.652;-2.730;2023-08-12T08:46:56;21.20;77.90
81192;DHT22;70665;47.652;-2.730;2023-08-12T08:49:24;21.50;76.70
81192;DHT22;70665;47.652;-2.730;2023-08-12T08:51:51;21.70;75.60
81192;DHT22;70665;47.652;-2.730;2023-08-12T08:54:18;21.90;76.40
81192;DHT22;70665;47.652;-2.730;2023-08-12T08:56:44;22.20;75.10
81192;DHT22;70665;47.652;-2.730;2023-08-12T08:59:11;22.10;74.70
81192;DHT22;70665;47.652;-2.730;2023-08-12T09:01:37;22.40;74.40
81192;DHT22;70665;47.652;-2.730;2023-08-12T09:04:03;22.50;74.70
81192;DHT22;70665;47.652;-2.730;2023-08-12T09:06:31;22.40;72.20
81192;DHT22;70665;47.652;-2.730;2023-08-12T09:08:59;22.30;74.10
81192;DHT22;70665;47.652;-2.730;2023-08-12T09:11:26;22.30;74.40
81192;DHT22;70665;47.652;-2.730;2023-08-12T09:13:52;22.40;72.60
81192;DHT22;70665;47.652;-2.730;2023-08-12T09:16:18;22.50;72.40
81192;DHT22;70665;47.652;-2.730;2023-08-12T09:18:44;22.60;74.00
81192;DHT22;70665;47.652;-2.730;2023-08-12T09:21:10;22.60;72.80
81192;DHT22;70665;47.652;-2.730;2023-08-12T09:23:38;22.30;72.70
81192;DHT22;70665;47.652;-2.730;2023-08-12T09:26:14;22.40;73.10
81192;DHT22;70665;47.652;-2.730;2023-08-12T09:28:41;22.40;72.00
81192;DHT22;70665;47.652;-2.730;2023-08-12T09:31:07;22.50;73.30
81192;DHT22;70665;47.652;-2.730;2023-08-12T09:33:32;22.30;73.60
81192;DHT22;70665;47.652;-2.730;2023-08-12T09:36:03;22.20;74.00
81192;DHT22;70665;47.652;-2.730;2023-08-12T09:38:30;22.00;74.40
81192;DHT22;70665;47.652;-2.730;2023-08-12T09:40:56;22.10;74.40
81192;DHT22;70665;47.652;-2.730;2023-08-12T09:43:27;22.30;73.40
81192;DHT22;70665;47.652;-2.730;2023-08-12T09:45:55;22.40;71.80
81192;DHT22;70665;47.652;-2.730;2023-08-12T09:48:21;22.40;73.60
81192;DHT22;70665;47.652;-2.730;2023-08-12T09:50:47;22.60;73.80
81192;DHT22;70665;47.652;-2.730;2023-08-12T09:53:13;22.60;71.60
81192;DHT22;70665;47.652;-2.730;2023-08-12T09:55:39;22.80;72.80
81192;DHT22;70665;47.652;-2.730;2023-08-12T09:58:06;22.80;72.00
81192;DHT22;70665;47.652;-2.730;2023-08-12T10:00:33;22.70;70.10
81192;DHT22;70665;47.652;-2.730;2023-08-12T10:03:00;22.70;71.10
81192;DHT22;70665;47.652;-2.730;2023-08-12T10:05:31;22.50;72.00
81192;DHT22;70665;47.652;-2.730;2023-08-12T10:07:57;22.60;72.80
81192;DHT22;70665;47.652;-2.730;2023-08-12T10:10:25;22.40;68.60
81192;DHT22;70665;47.652;-2.730;2023-08-12T10:12:51;22.70;71.10
81192;DHT22;70665;47.652;-2.730;2023-08-12T10:15:17;22.80;70.20
81192;DHT22;70665;47.652;-2.730;2023-08-12T10:17:43;23.00;68.30
81192;DHT22;70665;47.652;-2.730;2023-08-12T10:20:13;23.10;64.70
81192;DHT22;70665;47.652;-2.730;2023-08-12T10:22:39;23.00;65.10
81192;DHT22;70665;47.652;-2.730;2023-08-12T10:25:07;23.30;65.70
81192;DHT22;70665;47.652;-2.730;2023-08-12T10:27:34;23.40;67.00
81192;DHT22;70665;47.652;-2.730;2023-08-12T10:30:05;23.40;64.10
81192;DHT22;70665;47.652;-2.730;2023-08-12T10:32:32;23.20;66.20
81192;DHT22;70665;47.652;-2.730;2023-08-12T10:34:58;23.10;68.20
81192;DHT22;70665;47.652;-2.730;2023-08-12T10:37:25;23.40;67.30
81192;DHT22;70665;47.652;-2.730;2023-08-12T10:39:54;23.70;67.50
81192;DHT22;70665;47.652;-2.730;2023-08-12T10:42:52;23.60;66.00
81192;DHT22;70665;47.652;-2.730;2023-08-12T10:45:19;23.80;67.40
81192;DHT22;70665;47.652;-2.730;2023-08-12T10:50:28;23.80;69.50
81192;DHT22;70665;47.652;-2.730;2023-08-12T10:52:56;23.90;67.40
81192;DHT22;70665;47.652;-2.730;2023-08-12T10:55:24;24.00;68.80
81192;DHT22;70665;47.652;-2.730;2023-08-12T10:57:54;24.10;68.70
81192;DHT22;70665;47.652;-2.730;2023-08-12T11:00:24;24.00;67.10
81192;DHT22;70665;47.652;-2.730;2023-08-12T11:02:51;24.00;68.10
81192;DHT22;70665;47.652;-2.730;2023-08-12T11:05:18;24.10;67.10
81192;DHT22;70665;47.652;-2.730;2023-08-12T11:07:49;24.30;65.80
81192;DHT22;70665;47.652;-2.730;2023-08-12T11:10:27;24.20;67.30
81192;DHT22;70665;47.652;-2.730;2023-08-12T11:15:34;24.60;63.50
81192;DHT22;70665;47.652;-2.730;2023-08-12T11:18:13;24.40;64.10
81192;DHT22;70665;47.652;-2.730;2023-08-12T11:20:40;24.60;64.50
81192;DHT22;70665;47.652;-2.730;2023-08-12T11:23:06;24.80;65.30
81192;DHT22;70665;47.652;-2.730;2023-08-12T11:25:34;24.60;63.80
81192;DHT22;70665;47.652;-2.730;2023-08-12T11:28:00;24.90;64.70
81192;DHT22;70665;47.652;-2.730;2023-08-12T11:30:27;24.90;64.90
81192;DHT22;70665;47.652;-2.730;2023-08-12T11:32:54;24.70;64.90
81192;DHT22;70665;47.652;-2.730;2023-08-12T11:35:20;24.60;64.20
81192;DHT22;70665;47.652;-2.730;2023-08-12T11:37:50;24.80;65.20
81192;DHT22;70665;47.652;-2.730;2023-08-12T11:40:19;24.90;65.20
81192;DHT22;70665;47.652;-2.730;2023-08-12T11:42:47;25.30;65.10
81192;DHT22;70665;47.652;-2.730;2023-08-12T11:45:15;25.60;66.30
81192;DHT22;70665;47.652;-2.730;2023-08-12T11:47:41;25.40;64.00
81192;DHT22;70665;47.652;-2.730;2023-08-12T11:50:09;25.20;63.10
81192;DHT22;70665;47.652;-2.730;2023-08-12T11:52:39;25.10;62.80
81192;DHT22;70665;47.652;-2.730;2023-08-12T11:55:05;25.30;64.00
81192;DHT22;70665;47.652;-2.730;2023-08-12T11:57:32;25.10;64.80
81192;DHT22;70665;47.652;-2.730;2023-08-12T12:00:07;24.80;62.10
81192;DHT22;70665;47.652;-2.730;2023-08-12T12:02:54;25.00;62.50
81192;DHT22;70665;47.652;-2.730;2023-08-12T12:05:28;25.10;63.90
81192;DHT22;70665;47.652;-2.730;2023-08-12T12:07:55;25.30;61.40
81192;DHT22;70665;47.652;-2.730;2023-08-12T12:10:27;25.40;61.10
81192;DHT22;70665;47.652;-2.730;2023-08-12T12:12:55;25.40;63.20
81192;DHT22;70665;47.652;-2.730;2023-08-12T12:15:20;25.30;62.70
81192;DHT22;70665;47.652;-2.730;2023-08-12T12:17:50;25.40;61.70
81192;DHT22;70665;47.652;-2.730;2023-08-12T12:20:16;25.60;63.10
81192;DHT22;70665;47.652;-2.730;2023-08-12T12:22:43;25.50;62.10
81192;DHT22;70665;47.652;-2.730;2023-08-12T12:25:11;25.50;61.40
81192;DHT22;70665;47.652;-2.730;2023-08-12T12:27:38;25.40;63.40
81192;DHT22;70665;47.652;-2.730;2023-08-12T12:30:07;24.90;62.30
81192;DHT22;70665;47.652;-2.730;2023-08-12T12:32:33;24.50;63.60
81192;DHT22;70665;47.652;-2.730;2023-08-12T12:34:59;24.60;63.00
81192;DHT22;70665;47.652;-2.730;2023-08-12T12:37:25;24.70;63.60
81192;DHT22;70665;47.652;-2.730;2023-08-12T12:39:51;25.20;64.30
81192;DHT22;70665;47.652;-2.730;2023-08-12T12:42:16;25.50;62.40
81192;DHT22;70665;47.652;-2.730;2023-08-12T12:44:42;25.90;64.00
81192;DHT22;70665;47.652;-2.730;2023-08-12T12:47:07;26.20;61.90
81192;DHT22;70665;47.652;-2.730;2023-08-12T12:49:35;26.30;59.10
81192;DHT22;70665;47.652;-2.730;2023-08-12T12:52:01;26.40;58.50
81192;DHT22;70665;47.652;-2.730;2023-08-12T12:54:26;26.10;58.20
81192;DHT22;70665;47.652;-2.730;2023-08-12T12:56:52;26.40;57.90
81192;DHT22;70665;47.652;-2.730;2023-08-12T12:59:18;26.40;59.40
81192;DHT22;70665;47.652;-2.730;2023-08-12T13:01:44;26.50;59.40
81192;DHT22;70665;47.652;-2.730;2023-08-12T13:04:10;26.40;60.30
81192;DHT22;70665;47.652;-2.730;2023-08-12T13:06:36;26.30;60.30
81192;DHT22;70665;47.652;-2.730;2023-08-12T13:09:01;26.00;60.20
81192;DHT22;70665;47.652;-2.730;2023-08-12T13:11:28;26.30;60.40
81192;DHT22;70665;47.652;-2.730;2023-08-12T13:13:54;26.60;56.90
81192;DHT22;70665;47.652;-2.730;2023-08-12T13:16:20;26.50;58.20
81192;DHT22;70665;47.652;-2.730;2023-08-12T13:18:46;26.70;58.20
81192;DHT22;70665;47.652;-2.730;2023-08-12T13:21:11;26.60;58.50
81192;DHT22;70665;47.652;-2.730;2023-08-12T13:23:37;26.90;56.80
81192;DHT22;70665;47.652;-2.730;2023-08-12T13:26:03;26.70;58.60
81192;DHT22;70665;47.652;-2.730;2023-08-12T13:28:28;27.00;58.90
81192;DHT22;70665;47.652;-2.730;2023-08-12T13:30:55;27.10;58.80
81192;DHT22;70665;47.652;-2.730;2023-08-12T13:33:21;27.20;57.30
81192;DHT22;70665;47.652;-2.730;2023-08-12T13:35:46;27.40;60.60
81192;DHT22;70665;47.652;-2.730;2023-08-12T13:38:12;26.90;57.10
81192;DHT22;70665;47.652;-2.730;2023-08-12T13:40:37;26.90;57.90
81192;DHT22;70665;47.652;-2.730;2023-08-12T13:43:03;27.10;57.60
81192;DHT22;70665;47.652;-2.730;2023-08-12T13:45:29;27.30;56.20
81192;DHT22;70665;47.652;-2.730;2023-08-12T13:47:54;27.30;57.70
81192;DHT22;70665;47.652;-2.730;2023-08-12T13:50:20;26.90;57.90
81192;DHT22;70665;47.652;-2.730;2023-08-12T13:52:46;26.70;61.40
81192;DHT22;70665;47.652;-2.730;2023-08-12T13:55:12;26.60;58.80
81192;DHT22;70665;47.652;-2.730;2023-08-12T13:57:38;25.80;60.00
81192;DHT22;70665;47.652;-2.730;2023-08-12T14:00:04;26.20;60.90
81192;DHT22;70665;47.652;-2.730;2023-08-12T14:02:37;25.90;60.70
81192;DHT22;70665;47.652;-2.730;2023-08-12T14:05:03;25.80;61.40
81192;DHT22;70665;47.652;-2.730;2023-08-12T14:07:30;25.50;63.10
81192;DHT22;70665;47.652;-2.730;2023-08-12T14:09:56;25.30;63.30
81192;DHT22;70665;47.652;-2.730;2023-08-12T14:12:21;25.40;62.90
81192;DHT22;70665;47.652;-2.730;2023-08-12T14:14:47;25.50;62.90
81192;DHT22;70665;47.652;-2.730;2023-08-12T14:17:14;25.40;63.70
81192;DHT22;70665;47.652;-2.730;2023-08-12T14:19:43;25.50;64.10
81192;DHT22;70665;47.652;-2.730;2023-08-12T14:22:08;25.40;62.00
81192;DHT22;70665;47.652;-2.730;2023-08-12T14:24:34;25.30;63.10
81192;DHT22;70665;47.652;-2.730;2023-08-12T14:26:59;25.30;62.50
81192;DHT22;70665;47.652;-2.730;2023-08-12T14:29:25;25.20;64.30
81192;DHT22;70665;47.652;-2.730;2023-08-12T14:31:52;25.20;63.90
81192;DHT22;70665;47.652;-2.730;2023-08-12T14:34:17;25.70;62.50
81192;DHT22;70665;47.652;-2.730;2023-08-12T14:36:43;26.20;60.70
81192;DHT22;70665;47.652;-2.730;2023-08-12T14:39:08;27.00;59.60
81192;DHT22;70665;47.652;-2.730;2023-08-12T14:41:34;27.60;57.10
81192;DHT22;70665;47.652;-2.730;2023-08-12T14:43:59;27.20;58.40
81192;DHT22;70665;47.652;-2.730;2023-08-12T14:46:25;26.80;59.10
81192;DHT22;70665;47.652;-2.730;2023-08-12T14:48:51;26.70;60.30
81192;DHT22;70665;47.652;-2.730;2023-08-12T14:51:18;26.50;60.90
81192;DHT22;70665;47.652;-2.730;2023-08-12T14:53:44;26.00;62.80
81192;DHT22;70665;47.652;-2.730;2023-08-12T14:56:10;26.00;63.40
81192;DHT22;70665;47.652;-2.730;2023-08-12T14:58:35;26.30;61.50
81192;DHT22;70665;47.652;-2.730;2023-08-12T15:01:01;26.70;61.20
81192;DHT22;70665;47.652;-2.730;2023-08-12T15:03:28;26.40;59.30
81192;DHT22;70665;47.652;-2.730;2023-08-12T15:06:00;25.50;62.20
81192;DHT22;70665;47.652;-2.730;2023-08-12T15:08:27;25.30;65.00
81192;DHT22;70665;47.652;-2.730;2023-08-12T15:10:53;25.30;65.00
81192;DHT22;70665;47.652;-2.730;2023-08-12T15:13:19;25.30;62.50
81192;DHT22;70665;47.652;-2.730;2023-08-12T15:15:48;26.00;60.30
81192;DHT22;70665;47.652;-2.730;2023-08-12T15:18:14;26.90;59.00